Bookmark and Share
Track history (hours):
 

Rorichmoor

Last reported at 2014-Apr-20 02:19 UTC. Time now 2014-Apr-21 12:22 UTC.
Position N 39°53' E 001°34'.

Length 80 m; draft 4.3 m.

Type: Cargo ship. MMSI: 304938000.

NotesDate/timePositionNaut miles runAvg speedWind from/ knotsBaromVisibWave heightAir tempDewpointWater temp
2014-Apr-20 02:19N 39°53' E 001°34'7 8.8
2014-Apr-20 01:33N 39°58' E 001°39'9 8.8
2014-Apr-20 00:33N 40°05' E 001°47'9 8.7
2014-Apr-19 23:33N 40°12' E 001°54'8 8.4
2014-Apr-19 22:33N 40°19' E 002°00'9 8.7
2014-Apr-19 21:33N 40°26' E 002°07'8 8.5
2014-Apr-19 20:33N 40°32' E 002°14'8 8.0
2014-Apr-19 19:32N 40°39' E 002°21'8 8.1
2014-Apr-19 18:30N 40°46' E 002°27'12 8.5
2014-Apr-19 17:07N 40°55' E 002°37'18 9.2
2014-Apr-19 15:07N 41°09' E 002°52'6 9.0
2014-Apr-19 14:24N 41°14' E 002°57'8 9.3
2014-Apr-19 13:33N 41°21' E 003°03'10 9.8
2014-Apr-19 12:34N 41°28' E 003°12'10 9.8
2014-Apr-19 11:33N 41°36' E 003°20'10 9.7
2014-Apr-19 10:33N 41°44' E 003°28'9 9.2
2014-Apr-19 09:33N 41°51' E 003°35'9 9.4
2014-Apr-19 08:33N 41°58' E 003°43'9 9.5
2014-Apr-19 07:33N 42°06' E 003°51'10 9.5
2014-Apr-19 06:33N 42°13' E 003°59'9 9.3
2014-Apr-19 05:33N 42°21' E 004°06'10 9.9
2014-Apr-19 04:33N 42°28' E 004°15'9 9.2
2014-Apr-19 03:34N 42°36' E 004°22'1010.0
2014-Apr-19 02:33N 42°44' E 004°31'10 9.9
2014-Apr-19 01:33N 42°51' E 004°39'26 8.8
2014-Apr-18 22:33N 43°15' E 004°55'9 8.7
2014-Apr-18 21:33N 43°24' E 004°54'4 4.0
2014-Apr-18 20:29N 43°23' E 004°49'  
2014-Apr-16 04:33N 43°23' E 004°49'3 3.2
2014-Apr-16 03:33N 43°24' E 004°53'8 7.6
2014-Apr-16 02:33N 43°18' E 004°60'18 8.8
2014-Apr-16 00:32N 43°01' E 004°52'9 9.0
2014-Apr-15 23:34N 42°54' E 004°44'17 8.4
2014-Apr-15 21:33N 42°41' E 004°30'8 7.8
2014-Apr-15 20:33N 42°35' E 004°24'8 7.9
2014-Apr-15 19:32N 42°28' E 004°18'12 8.4
2014-Apr-15 18:09N 42°19' E 004°07'6 9.1
2014-Apr-15 17:33N 42°15' E 004°03'9 9.2
2014-Apr-15 16:34N 42°08' E 003°55'9 9.0
2014-Apr-15 15:33N 42°00' E 003°48'9 8.6
2014-Apr-15 14:33N 41°53' E 003°41'17 5.7
2014-Apr-15 11:31N 41°39' E 003°29'17 8.6
2014-Apr-15 09:33N 41°26' E 003°14'9 9.1
2014-Apr-15 08:32N 41°19' E 003°05'47 9.5
2014-Apr-15 03:33N 40°42' E 002°27'1010.0
2014-Apr-15 02:33N 40°34' E 002°19'10 9.9
2014-Apr-15 01:32N 40°26' E 002°11'1010.0
2014-Apr-15 00:34N 40°18' E 002°04'1010.1
2014-Apr-14 23:32N 40°10' E 001°55'1010.0
2014-Apr-14 22:34N 40°02' E 001°48'10 9.9
2014-Apr-14 21:34N 39°54' E 001°40'403 8.9
2014-Apr-13 00:33N 35°59' W 005°15'1210.9
2014-Apr-12 23:28N 35°57' W 005°29'282 7.6
2014-Apr-11 10:20N 38°53' W 010°06'  

Dump ship's entire track history

sailing weather and tide predictions

Rorichmoor — V2BV7 — position and weather